Ares, Brazil
Current Conditions -  °F | °C
As of 6:00 AM on Friday 28 Nov 2014 (Local Time) from SBNT Reporting Station
Scattered Clouds Scattered Clouds  
Wind Chill: 73°   Ceiling: Unl
Heat Index: 73°   Visibility: 6mi
Dew Point: 70°   Wind: 8mph
Humidity: 88%   Direction: 200°SSW
Pressure: 29.88"   Gusts: NA
Location:  6.19°S, 35.16°W
Report Text: SBNT 280900Z 20007KT 9999 SCT021 23/21 Q1012
Loading
Personal Weather Stations






























Interactive Weather Map New forecast layout! Learn more

10-Day Weather Forecast

Advertisements
Track Severe Weather on mobile